createdAt,value
2022-11-30T00:01:22.806Z,9.52
2022-11-30T00:03:55.184Z,9.43
2022-11-30T00:06:24.918Z,9.18
2022-11-30T00:08:56.265Z,8.95
2022-11-30T00:11:25.559Z,9.10
2022-11-30T00:13:52.615Z,8.82
2022-11-30T00:16:19.539Z,7.97
2022-11-30T00:18:46.445Z,8.27
2022-11-30T00:21:14.828Z,9.27
2022-11-30T00:23:44.335Z,8.48
2022-11-30T00:26:13.994Z,9.50
2022-11-30T00:28:41.905Z,8.70
2022-11-30T00:31:12.269Z,8.02
2022-11-30T00:33:40.209Z,7.82
2022-11-30T00:36:10.667Z,9.02
2022-11-30T00:38:37.583Z,9.20
2022-11-30T00:41:04.784Z,8.00
2022-11-30T00:43:32.069Z,7.65
2022-11-30T00:45:59.033Z,8.23
2022-11-30T00:48:26.210Z,8.50
2022-11-30T00:50:53.729Z,8.02
2022-11-30T00:53:21.638Z,8.63
2022-11-30T00:55:49.009Z,8.65
2022-11-30T00:58:15.946Z,8.35
2022-11-30T01:00:42.832Z,8.90
2022-11-30T01:03:09.858Z,9.07
2022-11-30T01:05:36.737Z,8.30
2022-11-30T01:08:05.904Z,8.43
2022-11-30T01:10:34.750Z,8.65
2022-11-30T01:13:01.938Z,8.65
2022-11-30T01:15:28.981Z,8.18
2022-11-30T01:17:55.922Z,7.93
2022-11-30T01:20:22.876Z,8.80
2022-11-30T01:22:49.762Z,8.23
2022-11-30T01:25:16.656Z,8.27
2022-11-30T01:27:43.568Z,8.27
2022-11-30T01:30:10.936Z,8.25
2022-11-30T01:32:38.109Z,9.38
2022-11-30T01:35:05.231Z,8.48
2022-11-30T01:37:32.062Z,8.50
2022-11-30T01:39:58.993Z,8.25
2022-11-30T01:42:25.889Z,9.75
2022-11-30T01:44:56.861Z,8.38
2022-11-30T01:47:32.585Z,9.13
2022-11-30T01:50:13.760Z,8.57
2022-11-30T01:52:46.940Z,9.13
2022-11-30T01:55:22.174Z,8.95
2022-11-30T01:57:54.877Z,9.48
2022-11-30T02:00:22.071Z,8.38
2022-11-30T02:03:11.309Z,10.07
2022-11-30T02:05:41.933Z,9.02
2022-11-30T02:08:10.961Z,8.90
2022-11-30T02:10:45.354Z,8.90
2022-11-30T02:13:30.096Z,9.80
2022-11-30T02:15:56.920Z,7.95
2022-11-30T02:18:59.010Z,8.98
2022-11-30T02:21:53.369Z,9.38
2022-11-30T02:24:56.649Z,8.88
2022-11-30T02:28:00.746Z,10.30
2022-11-30T02:30:32.025Z,10.60
2022-11-30T02:33:14.871Z,17.40
2022-11-30T02:35:49.172Z,13.05
2022-11-30T02:38:24.624Z,28.35
2022-11-30T02:40:52.383Z,21.85
2022-11-30T02:43:22.414Z,14.80
2022-11-30T02:45:58.218Z,13.95
2022-11-30T02:48:45.057Z,19.33
2022-11-30T02:51:18.268Z,16.48
2022-11-30T02:53:46.239Z,23.17
2022-11-30T02:56:13.256Z,22.45
2022-11-30T02:58:40.423Z,15.70
2022-11-30T03:01:08.534Z,16.77
2022-11-30T03:03:35.510Z,24.10
2022-11-30T03:06:02.343Z,18.75
2022-11-30T03:08:29.255Z,17.08
2022-11-30T03:10:56.091Z,17.90
2022-11-30T03:13:22.975Z,18.23
2022-11-30T03:15:50.069Z,20.65
2022-11-30T03:18:16.925Z,20.63
2022-11-30T03:20:43.992Z,16.27
2022-11-30T03:23:11.060Z,15.60
2022-11-30T03:25:38.029Z,13.55
2022-11-30T03:28:05.037Z,15.00
2022-11-30T03:30:31.961Z,23.42
2022-11-30T03:32:58.756Z,27.15
2022-11-30T03:35:25.572Z,25.27
2022-11-30T03:37:52.455Z,20.75
2022-11-30T03:40:19.965Z,19.88
2022-11-30T03:42:46.833Z,15.65
2022-11-30T03:45:13.681Z,16.90
2022-11-30T03:47:40.588Z,16.48
2022-11-30T03:50:08.132Z,16.25
2022-11-30T03:52:35.015Z,15.68
2022-11-30T03:55:01.840Z,15.43
2022-11-30T03:57:28.740Z,13.57
2022-11-30T03:59:55.885Z,12.93
2022-11-30T04:02:22.852Z,13.25
2022-11-30T04:04:49.812Z,14.27
2022-11-30T04:07:18.139Z,13.88
2022-11-30T04:09:44.962Z,13.27
2022-11-30T04:12:11.787Z,12.98
2022-11-30T04:14:38.645Z,13.63
2022-11-30T04:17:05.524Z,12.75
2022-11-30T04:19:32.365Z,12.70
2022-11-30T04:21:59.243Z,13.23
2022-11-30T04:24:26.043Z,12.43
2022-11-30T04:26:52.835Z,11.98
2022-11-30T04:29:19.729Z,12.45
2022-11-30T04:31:46.614Z,13.50
2022-11-30T04:34:13.623Z,11.85
2022-11-30T04:36:40.431Z,12.93
2022-11-30T04:39:07.585Z,13.15
2022-11-30T04:41:34.519Z,12.80
2022-11-30T04:44:01.462Z,12.93
2022-11-30T04:46:28.346Z,12.43
2022-11-30T04:48:55.195Z,12.93
2022-11-30T04:51:22.045Z,13.85
2022-11-30T04:53:48.883Z,14.93
2022-11-30T04:56:15.748Z,13.32
2022-11-30T04:58:42.564Z,12.95
2022-11-30T05:01:09.561Z,12.73
2022-11-30T05:03:36.647Z,13.43
2022-11-30T05:06:04.392Z,12.52
2022-11-30T05:08:31.387Z,12.52
2022-11-30T05:10:58.267Z,12.95
2022-11-30T05:13:26.208Z,13.20
2022-11-30T05:15:56.233Z,12.90
2022-11-30T05:18:23.420Z,12.45
2022-11-30T05:20:51.539Z,12.35
2022-11-30T05:23:19.007Z,12.75
2022-11-30T05:25:46.366Z,12.00
2022-11-30T05:28:13.913Z,13.38
2022-11-30T05:30:41.732Z,12.57
2022-11-30T05:33:08.853Z,12.80
2022-11-30T05:35:35.945Z,14.18
2022-11-30T05:38:03.528Z,12.02
2022-11-30T05:40:32.671Z,12.38
2022-11-30T05:43:01.789Z,11.98
2022-11-30T05:45:29.148Z,12.95
2022-11-30T05:47:56.031Z,11.65
2022-11-30T05:50:22.963Z,12.55
2022-11-30T05:52:56.235Z,13.48
2022-11-30T05:55:24.070Z,13.35
2022-11-30T05:57:51.007Z,12.63
2022-11-30T06:00:18.538Z,13.55
2022-11-30T06:02:46.101Z,14.05
2022-11-30T06:05:13.793Z,13.57
2022-11-30T06:07:41.700Z,14.75
2022-11-30T06:10:09.035Z,12.95
2022-11-30T06:12:35.847Z,13.98
2022-11-30T06:15:03.486Z,13.88
2022-11-30T06:17:30.337Z,13.23
2022-11-30T06:19:57.263Z,14.20
2022-11-30T06:22:24.125Z,13.07
2022-11-30T06:24:51.007Z,14.07
2022-11-30T06:27:18.009Z,14.35
2022-11-30T06:29:44.842Z,13.73
2022-11-30T06:32:11.744Z,13.98
2022-11-30T06:34:38.517Z,14.52
2022-11-30T06:37:05.379Z,15.13
2022-11-30T06:40:04.276Z,14.27
2022-11-30T06:42:19.804Z,14.48
2022-11-30T06:44:46.968Z,14.68
2022-11-30T06:47:14.450Z,14.68
2022-11-30T06:49:41.351Z,14.02
2022-11-30T06:52:08.160Z,14.73
2022-11-30T06:54:34.983Z,14.88
2022-11-30T06:57:01.811Z,13.35
2022-11-30T06:59:28.614Z,14.63
2022-11-30T07:01:55.423Z,14.77
2022-11-30T07:04:22.628Z,14.93
2022-11-30T07:06:49.481Z,14.23
2022-11-30T07:09:16.343Z,14.02
2022-11-30T07:11:43.146Z,15.02
2022-11-30T07:14:10.077Z,14.13
2022-11-30T07:16:37.024Z,15.57
2022-11-30T07:19:03.907Z,14.77
2022-11-30T07:21:30.731Z,14.88
2022-11-30T07:24:16.180Z,15.05
2022-11-30T07:26:43.138Z,13.00
2022-11-30T07:29:09.952Z,14.63
2022-11-30T07:31:36.915Z,14.43
2022-11-30T07:34:06.942Z,14.93
2022-11-30T07:36:34.894Z,15.52
2022-11-30T07:39:02.267Z,14.77
2022-11-30T07:41:29.443Z,15.43
2022-11-30T07:43:56.286Z,15.30
2022-11-30T07:46:23.194Z,15.52
2022-11-30T07:48:50.176Z,14.98
2022-11-30T07:51:20.236Z,16.63
2022-11-30T07:53:47.554Z,16.30
2022-11-30T07:56:16.794Z,15.32
2022-11-30T07:58:44.378Z,15.90
2022-11-30T08:01:13.554Z,15.90
2022-11-30T08:03:40.627Z,16.52
2022-11-30T08:06:10.341Z,17.30
2022-11-30T08:08:41.433Z,15.88
2022-11-30T08:11:10.913Z,15.15
2022-11-30T08:13:37.975Z,16.27
2022-11-30T08:16:07.634Z,14.32
2022-11-30T08:18:34.798Z,17.38
2022-11-30T08:21:04.137Z,16.38
2022-11-30T08:23:33.608Z,16.85
2022-11-30T08:26:06.316Z,18.20
2022-11-30T08:28:36.269Z,18.33
2022-11-30T08:31:05.923Z,17.88
2022-11-30T08:33:33.942Z,19.10
2022-11-30T08:36:12.672Z,16.45
2022-11-30T08:38:40.706Z,16.05
2022-11-30T08:41:09.062Z,15.80
2022-11-30T08:43:36.200Z,17.60
2022-11-30T08:46:21.259Z,19.73
2022-11-30T08:49:02.373Z,17.27
2022-11-30T08:52:08.796Z,17.55
2022-11-30T08:54:27.496Z,19.33
2022-11-30T08:56:54.376Z,18.17
2022-11-30T08:59:21.206Z,18.10
2022-11-30T09:01:48.187Z,17.70
2022-11-30T09:04:15.147Z,19.10
2022-11-30T09:06:42.047Z,18.13
2022-11-30T09:09:09.468Z,18.33
2022-11-30T09:11:36.317Z,17.42
2022-11-30T09:14:06.975Z,17.50
2022-11-30T09:16:33.866Z,17.77
2022-11-30T09:19:00.799Z,18.98
2022-11-30T09:21:28.142Z,17.50
2022-11-30T09:23:56.454Z,18.77
2022-11-30T09:26:25.431Z,17.33
2022-11-30T09:28:53.588Z,18.83
2022-11-30T09:31:25.153Z,18.73
2022-11-30T09:33:53.251Z,17.25
2022-11-30T09:36:22.562Z,19.23
2022-11-30T09:38:49.554Z,18.45
2022-11-30T09:41:32.324Z,17.63
2022-11-30T09:44:10.779Z,18.13
2022-11-30T09:46:41.834Z,19.75
2022-11-30T09:49:08.627Z,18.17
2022-11-30T09:51:41.982Z,17.45
2022-11-30T09:54:15.260Z,18.95
2022-11-30T09:56:44.021Z,18.02
2022-11-30T09:59:17.039Z,18.88
2022-11-30T10:01:46.234Z,17.92
2022-11-30T10:04:25.679Z,17.50
2022-11-30T10:07:14.144Z,17.95
2022-11-30T10:10:15.869Z,18.80
2022-11-30T10:12:51.607Z,18.45
2022-11-30T10:15:44.140Z,17.77
2022-11-30T10:18:21.945Z,19.85
2022-11-30T10:20:48.975Z,18.52
2022-11-30T10:23:42.661Z,19.67
2022-11-30T10:26:16.531Z,17.83
2022-11-30T10:28:51.931Z,18.67
2022-11-30T10:31:26.802Z,18.10
2022-11-30T10:33:55.621Z,20.25
2022-11-30T10:36:33.297Z,18.23
2022-11-30T10:39:04.647Z,18.77
2022-11-30T10:41:40.434Z,19.58
2022-11-30T10:44:14.533Z,20.73
2022-11-30T10:46:49.012Z,19.20
2022-11-30T10:49:19.454Z,18.88
2022-11-30T10:51:50.945Z,19.17
2022-11-30T10:54:20.653Z,18.67
2022-11-30T10:56:47.885Z,18.27
2022-11-30T10:59:34.458Z,19.65
2022-11-30T11:02:01.496Z,18.17
2022-11-30T11:04:28.513Z,17.67
2022-11-30T11:06:59.568Z,19.08
2022-11-30T11:09:39.986Z,18.77
2022-11-30T11:12:27.868Z,19.25
2022-11-30T11:15:25.420Z,18.83
2022-11-30T11:17:53.231Z,18.55
2022-11-30T11:20:34.986Z,18.67
2022-11-30T11:23:03.702Z,19.25
2022-11-30T11:25:35.102Z,18.42
2022-11-30T11:28:15.174Z,17.67
2022-11-30T11:30:42.314Z,17.35
2022-11-30T11:33:12.061Z,18.88
2022-11-30T11:35:49.712Z,17.67
2022-11-30T11:38:23.881Z,17.63
2022-11-30T11:41:02.841Z,18.40
2022-11-30T11:43:34.593Z,18.38
2022-11-30T11:46:19.834Z,17.90
2022-11-30T11:48:56.543Z,17.35
2022-11-30T11:51:38.464Z,17.80
2022-11-30T11:54:14.447Z,16.02
2022-11-30T11:56:41.772Z,16.55
2022-11-30T11:59:14.406Z,16.58
2022-11-30T12:02:03.005Z,18.05
2022-11-30T12:04:48.175Z,17.25
2022-11-30T12:07:20.646Z,16.58
2022-11-30T12:10:02.905Z,16.65
2022-11-30T12:12:29.804Z,16.73
2022-11-30T12:14:57.511Z,16.90
2022-11-30T12:17:42.181Z,16.20
2022-11-30T12:20:20.857Z,16.48
2022-11-30T12:23:26.673Z,16.23
2022-11-30T12:26:05.242Z,16.50
2022-11-30T12:28:42.884Z,15.80
2022-11-30T12:31:17.270Z,15.35
2022-11-30T12:34:12.455Z,16.15
2022-11-30T12:37:05.559Z,16.88
2022-11-30T12:39:32.406Z,16.63
2022-11-30T12:42:12.817Z,16.73
2022-11-30T12:45:04.949Z,15.50
2022-11-30T12:47:49.002Z,16.67
2022-11-30T12:50:39.222Z,17.02
2022-11-30T12:53:11.889Z,16.58
2022-11-30T12:56:11.937Z,17.58
2022-11-30T12:58:47.773Z,17.05
2022-11-30T13:01:37.137Z,16.35
2022-11-30T13:04:28.537Z,15.32
2022-11-30T13:07:02.916Z,16.88
2022-11-30T13:09:38.550Z,15.00
2022-11-30T13:12:17.347Z,17.75
2022-11-30T13:14:44.887Z,16.58
2022-11-30T13:17:18.263Z,17.23
2022-11-30T13:20:08.213Z,16.65
2022-11-30T13:22:56.902Z,17.73
2022-11-30T13:26:06.746Z,17.42
2022-11-30T13:28:38.249Z,16.45
2022-11-30T13:31:27.735Z,16.60
2022-11-30T13:33:54.543Z,16.20
2022-11-30T13:36:44.824Z,16.45
2022-11-30T13:39:14.432Z,17.80
2022-11-30T13:41:47.245Z,16.88
2022-11-30T13:44:37.433Z,16.02
2022-11-30T13:47:18.412Z,18.20
2022-11-30T13:49:46.207Z,16.33
2022-11-30T13:52:23.512Z,16.58
2022-11-30T13:54:54.686Z,17.10
2022-11-30T13:57:30.457Z,18.55
2022-11-30T14:00:02.272Z,16.80
2022-11-30T14:02:34.537Z,16.95
2022-11-30T14:05:16.843Z,17.38
2022-11-30T14:07:52.334Z,16.13
2022-11-30T14:10:28.867Z,17.40
2022-11-30T14:13:10.813Z,17.75
2022-11-30T14:15:43.262Z,16.30
2022-11-30T14:18:10.145Z,18.48
2022-11-30T14:20:46.317Z,18.23
2022-11-30T14:23:21.736Z,17.05
2022-11-30T14:25:51.581Z,16.65
2022-11-30T14:28:43.816Z,17.67
2022-11-30T14:31:17.130Z,16.48
2022-11-30T14:33:55.402Z,16.92
2022-11-30T14:36:27.167Z,16.85
2022-11-30T14:38:54.360Z,16.77
2022-11-30T14:41:23.854Z,17.02
2022-11-30T14:44:02.760Z,17.77
2022-11-30T14:46:30.653Z,17.52
2022-11-30T14:49:17.430Z,16.52
2022-11-30T14:52:13.557Z,17.70
2022-11-30T14:54:51.191Z,16.95
2022-11-30T14:57:34.279Z,17.00
2022-11-30T15:00:01.283Z,17.98
2022-11-30T15:02:35.769Z,19.17
2022-11-30T15:05:04.691Z,17.48
2022-11-30T15:07:31.856Z,16.42
2022-11-30T15:10:32.869Z,16.58
2022-11-30T15:13:02.223Z,16.70
2022-11-30T15:15:31.312Z,17.27
2022-11-30T15:18:08.313Z,17.85
2022-11-30T15:20:43.146Z,17.08
2022-11-30T15:23:14.383Z,17.90
2022-11-30T15:25:48.485Z,17.15
2022-11-30T15:28:39.075Z,16.38
2022-11-30T15:31:12.862Z,17.00
2022-11-30T15:33:45.946Z,18.05
2022-11-30T15:36:31.374Z,16.77
2022-11-30T15:39:19.199Z,18.08
2022-11-30T15:41:46.128Z,17.60
2022-11-30T15:44:36.258Z,17.40
2022-11-30T15:47:04.566Z,16.13
2022-11-30T15:49:33.706Z,16.38
2022-11-30T15:52:09.617Z,16.95
2022-11-30T15:54:55.666Z,15.95
2022-11-30T15:57:25.464Z,17.35
2022-11-30T16:00:19.423Z,16.58
2022-11-30T16:02:46.467Z,17.02
2022-11-30T16:05:14.783Z,18.33
2022-11-30T16:07:57.552Z,17.20
2022-11-30T16:10:28.751Z,16.02
2022-11-30T16:12:56.046Z,18.80
2022-11-30T16:15:30.545Z,17.75
2022-11-30T16:18:01.621Z,17.27
2022-11-30T16:20:28.699Z,16.90
2022-11-30T16:22:55.530Z,17.63
2022-11-30T16:25:25.103Z,17.20
2022-11-30T16:27:52.675Z,17.38
2022-11-30T16:30:21.824Z,18.17
2022-11-30T16:32:49.256Z,18.00
2022-11-30T16:35:17.055Z,17.52
2022-11-30T16:37:44.220Z,17.08
2022-11-30T16:40:12.132Z,18.05
2022-11-30T16:42:38.970Z,20.10
2022-11-30T16:45:11.802Z,21.10
2022-11-30T16:47:38.706Z,18.92
2022-11-30T16:50:06.328Z,19.20
2022-11-30T16:52:33.268Z,19.50
2022-11-30T16:55:00.182Z,20.23
2022-11-30T16:57:28.030Z,19.02
2022-11-30T16:59:54.908Z,19.05
2022-11-30T17:02:23.615Z,20.20
2022-11-30T17:04:50.819Z,19.60
2022-11-30T17:07:18.239Z,19.25
2022-11-30T17:09:45.167Z,19.17
2022-11-30T17:12:12.192Z,19.25
2022-11-30T17:14:38.999Z,18.23
2022-11-30T17:17:06.156Z,19.65
2022-11-30T17:19:33.192Z,18.42
2022-11-30T17:22:00.087Z,21.10
2022-11-30T17:24:32.836Z,19.20
2022-11-30T17:27:02.318Z,19.77
2022-11-30T17:29:29.115Z,19.88
2022-11-30T17:31:56.000Z,20.17
2022-11-30T17:34:22.909Z,20.20
2022-11-30T17:36:56.049Z,20.30
2022-11-30T17:39:24.016Z,19.40
2022-11-30T17:41:50.854Z,20.75
2022-11-30T17:44:17.735Z,20.40
2022-11-30T17:46:48.196Z,21.52
2022-11-30T17:49:15.385Z,23.65
2022-11-30T17:51:42.267Z,24.85
2022-11-30T17:54:12.609Z,22.60
2022-11-30T17:56:41.279Z,22.70
2022-11-30T17:59:08.069Z,22.35
2022-11-30T18:01:35.072Z,22.38
2022-11-30T18:04:01.984Z,22.90
2022-11-30T18:06:29.081Z,23.15
2022-11-30T18:08:57.922Z,23.52
2022-11-30T18:11:27.663Z,23.17
2022-11-30T18:13:56.701Z,26.27
2022-11-30T18:16:29.434Z,25.27
2022-11-30T18:18:58.544Z,24.15
2022-11-30T18:21:28.205Z,24.55
2022-11-30T18:23:55.482Z,25.20
2022-11-30T18:26:24.137Z,26.75
2022-11-30T18:28:53.293Z,25.48
2022-11-30T18:31:20.535Z,25.80
2022-11-30T18:33:47.835Z,25.40
2022-11-30T18:36:14.754Z,26.13
2022-11-30T18:38:41.766Z,28.52
2022-11-30T18:41:08.767Z,28.65
2022-11-30T18:43:38.074Z,28.45
2022-11-30T18:46:08.364Z,26.50
2022-11-30T18:48:36.296Z,27.38
2022-11-30T18:51:13.959Z,26.00
2022-11-30T18:53:41.763Z,27.85
2022-11-30T18:56:19.972Z,27.55
2022-11-30T18:58:47.910Z,27.02
2022-11-30T19:01:16.154Z,27.33
2022-11-30T19:03:43.710Z,29.23
2022-11-30T19:06:11.138Z,28.70
2022-11-30T19:08:40.316Z,26.85
2022-11-30T19:11:09.451Z,28.27
2022-11-30T19:13:36.979Z,26.50
2022-11-30T19:16:06.755Z,27.13
2022-11-30T19:18:33.685Z,27.48
2022-11-30T19:21:00.954Z,26.92
2022-11-30T19:23:28.209Z,26.02
2022-11-30T19:26:00.639Z,27.75
2022-11-30T19:28:30.114Z,25.13
2022-11-30T19:30:58.500Z,25.38
2022-11-30T19:33:26.849Z,26.10
2022-11-30T19:35:53.658Z,25.48
2022-11-30T19:38:20.491Z,25.40
2022-11-30T19:40:47.394Z,24.17
2022-11-30T19:43:14.256Z,24.02
2022-11-30T19:45:41.159Z,24.67
2022-11-30T19:48:07.974Z,22.13
2022-11-30T19:50:34.795Z,22.45
2022-11-30T19:53:01.679Z,22.25
2022-11-30T19:55:28.537Z,23.08
2022-11-30T19:57:55.633Z,21.25
2022-11-30T20:00:22.493Z,20.85
2022-11-30T20:02:50.163Z,22.17
2022-11-30T20:05:17.863Z,21.30
2022-11-30T20:07:44.743Z,20.48
2022-11-30T20:10:15.233Z,22.23
2022-11-30T20:12:42.210Z,20.55
2022-11-30T20:15:09.570Z,19.30
2022-11-30T20:17:36.530Z,19.48
2022-11-30T20:20:03.763Z,19.65
2022-11-30T20:22:32.741Z,18.75
2022-11-30T20:24:59.659Z,20.20
2022-11-30T20:27:26.683Z,18.50
2022-11-30T20:29:53.761Z,20.08
2022-11-30T20:32:20.633Z,18.98
2022-11-30T20:34:47.772Z,18.08
2022-11-30T20:37:16.881Z,17.83
2022-11-30T20:39:46.133Z,17.50
2022-11-30T20:42:13.608Z,18.02
2022-11-30T20:44:40.914Z,18.23
2022-11-30T20:47:08.079Z,18.00
2022-11-30T20:49:34.988Z,17.42
2022-11-30T20:52:01.841Z,17.15
2022-11-30T20:54:30.542Z,18.02
2022-11-30T20:56:58.898Z,17.42
2022-11-30T20:59:26.838Z,15.75
2022-11-30T21:01:55.918Z,16.13
2022-11-30T21:04:25.719Z,16.45
2022-11-30T21:06:53.438Z,16.45
2022-11-30T21:09:21.023Z,16.42
2022-11-30T21:11:49.044Z,16.75
2022-11-30T21:14:17.799Z,15.55
2022-11-30T21:16:44.749Z,15.88
2022-11-30T21:19:14.448Z,14.90
2022-11-30T21:21:41.392Z,15.32
2022-11-30T21:24:09.223Z,16.27
2022-11-30T21:26:38.951Z,15.80
2022-11-30T21:29:10.790Z,14.43
2022-11-30T21:31:37.848Z,16.13
2022-11-30T21:34:04.891Z,15.13
2022-11-30T21:36:32.055Z,15.00
2022-11-30T21:39:05.665Z,14.57
2022-11-30T21:41:38.283Z,15.60
2022-11-30T21:44:06.477Z,14.55
2022-11-30T21:46:34.157Z,13.63
2022-11-30T21:49:01.562Z,14.20
2022-11-30T21:51:29.861Z,15.60
2022-11-30T21:54:00.567Z,20.80
2022-11-30T21:56:33.288Z,16.98
2022-11-30T21:59:00.735Z,18.58
2022-11-30T22:01:33.502Z,17.48
2022-11-30T22:04:01.387Z,18.85
2022-11-30T22:06:29.719Z,17.48
2022-11-30T22:09:02.827Z,16.80
2022-11-30T22:11:31.065Z,15.82
2022-11-30T22:13:58.001Z,16.60
2022-11-30T22:16:29.927Z,16.13
2022-11-30T22:19:01.225Z,14.30
2022-11-30T22:21:30.370Z,17.33
2022-11-30T22:24:02.685Z,15.68
2022-11-30T22:26:30.423Z,16.80
2022-11-30T22:29:05.804Z,15.32
2022-11-30T22:31:36.181Z,14.90
2022-11-30T22:34:03.558Z,16.75
2022-11-30T22:36:32.229Z,14.63
2022-11-30T22:39:01.765Z,15.27
2022-11-30T22:41:29.514Z,15.25
2022-11-30T22:43:57.594Z,15.18
2022-11-30T22:46:29.764Z,14.75
2022-11-30T22:49:00.293Z,15.15
2022-11-30T22:51:29.192Z,14.80
2022-11-30T22:53:56.520Z,15.18
2022-11-30T22:56:32.424Z,14.55
2022-11-30T22:59:00.947Z,14.45
2022-11-30T23:01:42.043Z,14.75
2022-11-30T23:04:15.018Z,13.95
2022-11-30T23:06:43.317Z,14.85
2022-11-30T23:09:16.204Z,15.20
2022-11-30T23:11:43.324Z,15.25
2022-11-30T23:14:12.111Z,15.35
2022-11-30T23:16:40.387Z,14.18
2022-11-30T23:19:08.367Z,15.75
2022-11-30T23:21:41.975Z,14.70
2022-11-30T23:24:20.721Z,14.93
2022-11-30T23:26:48.295Z,15.18
2022-11-30T23:29:16.923Z,14.60
2022-11-30T23:31:44.902Z,14.57
2022-11-30T23:34:15.530Z,14.32
2022-11-30T23:36:42.585Z,13.15
2022-11-30T23:39:13.115Z,13.63
2022-11-30T23:41:40.508Z,13.38
2022-11-30T23:44:07.832Z,13.27
2022-11-30T23:46:35.578Z,13.02
2022-11-30T23:49:02.889Z,13.13
2022-11-30T23:51:29.801Z,12.73
2022-11-30T23:53:56.830Z,12.95
2022-11-30T23:56:24.706Z,12.88
2022-11-30T23:58:52.295Z,12.35
